16:20
Airports
History
Links
Donate
Help keep this website running!
PayPal
Bitcoin
This page is community maintained. The information is intended for PC simulator navigation or reference.
Always use approved charts for navigation.
SDNY
AEROCLUBE NOVA IGUACU
AEROCLUBE NOVA IGUACU (SDNY)
Nova Iguaçu, Rio de Janeiro, Brazil (26282)
(U)
Lat/Lng:22° 44' 43.21" S / 43° 27' 37.11" W
-22.745336 / -43.460307
Elevation:164'ft / 50mMSL
ID / ICAO:SDNY
Runways:1
Longest:11-29
Asphalt 1,191m / 3,907ft
Nearby Weather16:00 GMT 2017-10-19
Nearby weather at SBAF, Campo Delio Jardim de Mattos located 10.2 nautical miles from SDNY
Altimeter: 29.88
Visibility: 6.2 statute miles
Wind: 8 knots (from 030°)
Temp: 37°c / 99°f
Humidity: 19.6%

METAR: SBAF 191600Z 03008KT CAVOK 37/10 Q1012

(Powered by phpweather)
Runway 11 / 29
Dimensions:1190.9 x 28m 3907' x 92'ft
Surface:Asphalt
Runway 11 [A]Runway 29 [B]
Heading:090°TH 270°TH
Lat:
Lng:
22° 44' 42.97"S
43° 27' 58.13"W
22° 44' 43.45"S
43° 27' 16.08"W
User Notes and Comments
22° 44' 43.21" S / 43° 27' 37.11" W
Distance To
Airport ID:
Nearby Airports
(C) Campo Delio Jardim de Mattos 10.2 NM
SBAF ( WX ) SSE 151°
(C) Galeao Antonio Carlos Jombim 14.7 NM
SBGL ( WX ) ESE 107°
(C) Jacarepagua 17.7 NM
SBJR ( WX ) SSE 161°
4 Clube Ceu 17.8 NM
SDIN SSE 167°
(C) SANTA CRUZ 20.9 NM
SBSC ( WX ) SW 231°
(C) Santos-Dumont 22.1 NM
SBRJ ( WX ) ESE 121°
4 Fazenda Santa Tereza 29.2 NM
SJTQ NNE 27°
VFR Chart
Flight Planning at SkyVector.com